createdAt,value
2018-11-12T00:00:16.231Z,1.20
2018-11-12T00:01:16.229Z,1.20
2018-11-12T00:02:16.215Z,2.20
2018-11-12T00:03:16.206Z,1.70
2018-11-12T00:04:16.223Z,1.40
2018-11-12T00:05:16.182Z,1.70
2018-11-12T00:06:16.171Z,1.40
2018-11-12T00:07:16.161Z,1.90
2018-11-12T00:08:16.144Z,2.40
2018-11-12T00:09:16.136Z,1.60
2018-11-12T00:10:16.160Z,2.00
2018-11-12T00:11:16.121Z,1.40
2018-11-12T00:12:16.102Z,1.50
2018-11-12T00:13:16.094Z,2.20
2018-11-12T00:14:16.086Z,1.10
2018-11-12T00:15:16.068Z,1.30
2018-11-12T00:16:16.099Z,1.50
2018-11-12T00:17:16.048Z,2.00
2018-11-12T00:18:16.033Z,2.20
2018-11-12T00:19:16.030Z,1.50
2018-11-12T00:20:16.016Z,1.50
2018-11-12T00:21:16.010Z,2.10
2018-11-12T00:22:16.172Z,3.20
2018-11-12T00:23:15.990Z,5.30
2018-11-12T00:24:26.044Z,1.50
2018-11-12T00:25:15.963Z,1.70
2018-11-12T00:26:15.949Z,1.60
2018-11-12T00:27:15.943Z,1.90
2018-11-12T00:28:15.942Z,2.60
2018-11-12T00:29:15.928Z,1.80
2018-11-12T00:30:15.915Z,1.90
2018-11-12T00:31:15.897Z,5.10
2018-11-12T00:32:15.890Z,1.50
2018-11-12T00:33:15.877Z,1.80
2018-11-12T00:34:15.899Z,1.60
2018-11-12T00:35:15.858Z,1.70
2018-11-12T00:36:15.852Z,3.40
2018-11-12T00:37:15.828Z,2.70
2018-11-12T00:38:15.823Z,2.00
2018-11-12T00:39:15.811Z,1.60
2018-11-12T00:40:15.843Z,2.30
2018-11-12T00:41:15.795Z,4.10
2018-11-12T00:42:15.785Z,3.60
2018-11-12T00:43:15.770Z,1.60
2018-11-12T00:44:15.757Z,1.80
2018-11-12T00:45:15.748Z,1.40
2018-11-12T00:46:15.777Z,1.40
2018-11-12T00:47:15.727Z,2.00
2018-11-12T00:48:15.711Z,1.90
2018-11-12T00:49:15.700Z,2.80
2018-11-12T00:50:15.687Z,1.80
2018-11-12T00:51:15.681Z,1.80
2018-11-12T00:52:15.914Z,1.70
2018-11-12T00:53:15.679Z,1.60
2018-11-12T00:54:15.654Z,2.00
2018-11-12T00:55:28.098Z,2.10
2018-11-12T00:56:15.625Z,1.60
2018-11-12T00:57:15.620Z,1.60
2018-11-12T00:58:15.693Z,1.80
2018-11-12T00:59:15.587Z,3.20
2018-11-12T01:00:15.578Z,1.80
2018-11-12T01:01:15.567Z,2.70
2018-11-12T01:02:15.562Z,2.00
2018-11-12T01:03:15.549Z,3.00
2018-11-12T01:04:15.646Z,1.80
2018-11-12T01:05:15.529Z,1.80
2018-11-12T01:06:15.516Z,1.60
2018-11-12T01:07:15.509Z,1.80
2018-11-12T01:08:15.496Z,1.70
2018-11-12T01:09:15.531Z,1.70
2018-11-12T01:10:15.513Z,2.00
2018-11-12T01:11:15.460Z,1.80
2018-11-12T01:12:15.455Z,2.80
2018-11-12T01:13:15.447Z,1.80
2018-11-12T01:14:15.427Z,5.60
2018-11-12T01:15:15.423Z,1.80
2018-11-12T01:16:15.609Z,4.20
2018-11-12T01:17:15.395Z,1.90
2018-11-12T01:18:15.402Z,2.30
2018-11-12T01:19:15.382Z,4.20
2018-11-12T01:20:15.363Z,2.90
2018-11-12T01:21:15.355Z,1.70
2018-11-12T01:22:15.386Z,1.70
2018-11-12T01:23:15.325Z,2.00
2018-11-12T01:24:15.325Z,3.30
2018-11-12T01:25:15.310Z,1.90
2018-11-12T01:26:25.346Z,1.80
2018-11-12T01:27:15.285Z,1.90
2018-11-12T01:28:15.310Z,3.80
2018-11-12T01:29:15.263Z,3.00
2018-11-12T01:30:15.251Z,2.90
2018-11-12T01:31:15.245Z,1.40
2018-11-12T01:32:15.231Z,2.60
2018-11-12T01:33:15.226Z,1.60
2018-11-12T01:34:15.246Z,2.60
2018-11-12T01:35:15.197Z,1.60
2018-11-12T01:36:15.186Z,4.80
2018-11-12T01:37:15.178Z,1.90
2018-11-12T01:38:15.166Z,2.20
2018-11-12T01:39:15.160Z,3.00
2018-11-12T01:40:15.222Z,2.70
2018-11-12T01:41:15.135Z,2.20
2018-11-12T01:42:15.127Z,1.60
2018-11-12T01:43:15.122Z,1.80
2018-11-12T01:44:15.098Z,4.10
2018-11-12T01:45:15.098Z,2.00
2018-11-12T01:46:15.222Z,1.60
2018-11-12T01:47:15.064Z,2.30
2018-11-12T01:48:15.060Z,2.40
2018-11-12T01:49:15.052Z,1.90
2018-11-12T01:50:15.041Z,4.90
2018-11-12T01:51:15.023Z,2.20
2018-11-12T01:52:15.052Z,1.80
2018-11-12T01:53:15.005Z,1.80
2018-11-12T01:54:14.996Z,2.30
2018-11-12T01:55:14.985Z,1.50
2018-11-12T01:56:14.970Z,2.00
2018-11-12T01:57:26.231Z,2.90
2018-11-12T01:58:14.948Z,2.10
2018-11-12T01:59:14.934Z,2.10
2018-11-12T02:00:14.930Z,1.70
2018-11-12T02:01:14.918Z,2.00
2018-11-12T02:02:14.907Z,1.50
2018-11-12T02:03:14.933Z,1.80
2018-11-12T02:04:14.881Z,1.90
2018-11-12T02:05:14.873Z,1.90
2018-11-12T02:06:14.864Z,4.70
2018-11-12T02:07:14.854Z,2.10
2018-11-12T02:08:14.850Z,3.70
2018-11-12T02:09:14.874Z,2.90
2018-11-12T02:10:14.818Z,2.20
2018-11-12T02:11:14.816Z,2.10
2018-11-12T02:12:14.799Z,1.80
2018-11-12T02:13:14.790Z,3.00
2018-11-12T02:14:14.774Z,2.30
2018-11-12T02:15:14.782Z,1.80
2018-11-12T02:16:14.749Z,1.50
2018-11-12T02:17:14.741Z,1.90
2018-11-12T02:18:14.730Z,1.90
2018-11-12T02:19:14.722Z,2.20
2018-11-12T02:20:14.706Z,3.60
2018-11-12T02:21:14.713Z,1.90
2018-11-12T02:22:14.690Z,2.20
2018-11-12T02:23:14.683Z,2.50
2018-11-12T02:24:14.665Z,2.30
2018-11-12T02:25:14.654Z,1.90
2018-11-12T02:26:14.644Z,1.90
2018-11-12T02:27:14.645Z,2.90
2018-11-12T02:28:25.979Z,2.00
2018-11-12T02:29:14.613Z,2.10
2018-11-12T02:30:14.601Z,2.10
2018-11-12T02:31:14.592Z,4.50
2018-11-12T02:32:14.577Z,2.00
2018-11-12T02:33:14.665Z,1.80
2018-11-12T02:34:14.567Z,2.40
2018-11-12T02:35:14.554Z,2.10
2018-11-12T02:36:14.537Z,3.40
2018-11-12T02:37:14.523Z,2.40
2018-11-12T02:38:14.521Z,2.40
2018-11-12T02:39:14.549Z,2.00
2018-11-12T02:40:14.492Z,2.10
2018-11-12T02:41:14.488Z,2.10
2018-11-12T02:42:14.468Z,1.90
2018-11-12T02:43:14.459Z,1.80
2018-11-12T02:44:14.449Z,2.60
2018-11-12T02:45:14.478Z,2.10
2018-11-12T02:46:14.423Z,2.20
2018-11-12T02:47:14.421Z,1.90
2018-11-12T02:48:14.406Z,2.90
2018-11-12T02:49:14.390Z,2.10
2018-11-12T02:50:14.391Z,2.00
2018-11-12T02:51:14.551Z,2.00
2018-11-12T02:52:14.360Z,2.00
2018-11-12T02:53:14.353Z,3.10
2018-11-12T02:54:14.345Z,3.40
2018-11-12T02:55:14.324Z,2.80
2018-11-12T02:56:14.362Z,2.40
2018-11-12T02:57:14.352Z,3.30
2018-11-12T02:58:14.298Z,2.30
2018-11-12T02:59:25.047Z,2.10
2018-11-12T03:00:14.272Z,1.90
2018-11-12T03:01:14.264Z,1.90
2018-11-12T03:02:14.251Z,2.60
2018-11-12T03:03:14.282Z,2.60
2018-11-12T03:04:14.232Z,2.30
2018-11-12T03:05:14.224Z,2.20
2018-11-12T03:06:14.208Z,3.10
2018-11-12T03:07:14.223Z,3.90
2018-11-12T03:08:14.184Z,2.20
2018-11-12T03:09:14.253Z,2.50
2018-11-12T03:10:14.171Z,2.30
2018-11-12T03:11:14.162Z,2.50
2018-11-12T03:12:14.144Z,1.60
2018-11-12T03:13:14.132Z,2.60
2018-11-12T03:14:14.126Z,3.90
2018-11-12T03:15:14.151Z,2.50
2018-11-12T03:16:14.105Z,3.80
2018-11-12T03:17:14.089Z,3.60
2018-11-12T03:18:14.075Z,3.70
2018-11-12T03:19:14.071Z,2.50
2018-11-12T03:20:14.083Z,1.80
2018-11-12T03:21:14.222Z,2.10
2018-11-12T03:22:14.032Z,1.80
2018-11-12T03:23:14.023Z,2.10
2018-11-12T03:24:14.009Z,1.90
2018-11-12T03:25:14.006Z,4.00
2018-11-12T03:26:13.989Z,2.80
2018-11-12T03:27:14.154Z,4.90
2018-11-12T03:28:13.971Z,3.00
2018-11-12T03:29:13.965Z,2.10
2018-11-12T03:30:26.094Z,2.10
2018-11-12T03:31:13.933Z,2.50
2018-11-12T03:32:13.927Z,3.10
2018-11-12T03:33:13.944Z,2.00
2018-11-12T03:34:13.908Z,2.90
2018-11-12T03:35:13.901Z,2.40
2018-11-12T03:36:13.880Z,1.80
2018-11-12T03:37:13.875Z,2.00
2018-11-12T03:38:13.859Z,5.70
2018-11-12T03:39:13.887Z,3.30
2018-11-12T03:40:13.838Z,3.50
2018-11-12T03:41:13.824Z,2.10
2018-11-12T03:42:13.819Z,3.20
2018-11-12T03:43:13.815Z,2.70
2018-11-12T03:44:13.795Z,2.50
2018-11-12T03:45:14.173Z,2.70
2018-11-12T03:46:13.774Z,2.70
2018-11-12T03:47:13.763Z,3.20
2018-11-12T03:48:13.750Z,2.70
2018-11-12T03:49:13.743Z,2.50
2018-11-12T03:50:13.733Z,3.30
2018-11-12T03:51:13.753Z,3.10
2018-11-12T03:52:13.710Z,2.90
2018-11-12T03:53:13.694Z,5.10
2018-11-12T03:54:13.689Z,2.70
2018-11-12T03:55:13.670Z,3.00
2018-11-12T03:56:13.664Z,2.20
2018-11-12T03:57:13.711Z,2.00
2018-11-12T03:58:13.644Z,3.50
2018-11-12T03:59:13.629Z,1.90
2018-11-12T04:00:13.704Z,6.30
2018-11-12T04:01:24.197Z,2.60
2018-11-12T04:02:13.599Z,2.40
2018-11-12T04:03:13.628Z,3.30
2018-11-12T04:04:13.576Z,5.20
2018-11-12T04:05:13.563Z,4.10
2018-11-12T04:06:13.550Z,4.20
2018-11-12T04:07:13.547Z,4.20
2018-11-12T04:08:13.536Z,4.40
2018-11-12T04:09:13.562Z,2.60
2018-11-12T04:10:13.507Z,3.00
2018-11-12T04:11:13.499Z,2.90
2018-11-12T04:12:13.495Z,4.20
2018-11-12T04:13:13.482Z,2.70
2018-11-12T04:14:13.465Z,2.70
2018-11-12T04:15:13.495Z,5.10
2018-11-12T04:16:13.451Z,6.20
2018-11-12T04:17:13.433Z,3.40
2018-11-12T04:18:13.455Z,3.50
2018-11-12T04:19:13.421Z,2.20
2018-11-12T04:20:13.402Z,3.60
2018-11-12T04:21:13.420Z,3.30
2018-11-12T04:22:13.383Z,5.60
2018-11-12T04:23:13.367Z,3.10
2018-11-12T04:24:13.362Z,1.80
2018-11-12T04:25:13.347Z,5.70
2018-11-12T04:26:13.335Z,3.00
2018-11-12T04:27:13.363Z,3.50
2018-11-12T04:28:13.319Z,2.50
2018-11-12T04:29:13.304Z,3.20
2018-11-12T04:30:13.301Z,2.50
2018-11-12T04:31:13.284Z,4.60
2018-11-12T04:32:23.813Z,3.10
2018-11-12T04:33:13.259Z,4.10
2018-11-12T04:34:13.247Z,3.30
2018-11-12T04:35:13.240Z,3.80
2018-11-12T04:36:13.228Z,2.90
2018-11-12T04:37:13.220Z,3.90
2018-11-12T04:38:13.244Z,2.20
2018-11-12T04:39:13.191Z,3.40
2018-11-12T04:40:13.191Z,4.40
2018-11-12T04:41:13.177Z,2.20
2018-11-12T04:42:13.167Z,4.50
2018-11-12T04:43:13.148Z,2.60
2018-11-12T04:44:13.204Z,3.20
2018-11-12T04:45:13.125Z,2.70
2018-11-12T04:46:13.121Z,3.30
2018-11-12T04:47:13.109Z,1.90
2018-11-12T04:48:13.096Z,3.20
2018-11-12T04:49:13.089Z,2.60
2018-11-12T04:50:13.118Z,2.70
2018-11-12T04:51:13.068Z,3.40
2018-11-12T04:52:13.053Z,2.80
2018-11-12T04:53:13.046Z,5.80
2018-11-12T04:54:13.038Z,3.80
2018-11-12T04:55:13.042Z,2.40
2018-11-12T04:56:13.187Z,3.20
2018-11-12T04:57:12.995Z,3.60
2018-11-12T04:58:12.991Z,2.80
2018-11-12T04:59:13.030Z,2.30
2018-11-12T05:00:12.970Z,3.70
2018-11-12T05:01:12.955Z,2.50
2018-11-12T05:02:12.992Z,2.70
2018-11-12T05:03:23.454Z,2.10
2018-11-12T05:04:12.921Z,3.00
2018-11-12T05:05:12.911Z,2.10
2018-11-12T05:06:12.900Z,2.60
2018-11-12T05:07:12.894Z,2.40
2018-11-12T05:08:12.918Z,2.80
2018-11-12T05:09:12.875Z,2.20
2018-11-12T05:10:12.859Z,4.20
2018-11-12T05:11:12.844Z,2.80
2018-11-12T05:12:12.838Z,2.50
2018-11-12T05:13:12.825Z,1.60
2018-11-12T05:14:13.088Z,2.30
2018-11-12T05:15:12.803Z,1.60
2018-11-12T05:16:12.792Z,2.60
2018-11-12T05:17:12.786Z,2.50
2018-11-12T05:18:12.772Z,3.90
2018-11-12T05:19:12.761Z,2.40
2018-11-12T05:20:12.808Z,3.70
2018-11-12T05:21:12.738Z,2.30
2018-11-12T05:22:12.725Z,2.40
2018-11-12T05:23:12.721Z,1.70
2018-11-12T05:24:12.712Z,3.90
2018-11-12T05:25:12.695Z,2.10
2018-11-12T05:26:12.701Z,2.50
2018-11-12T05:27:12.674Z,2.30
2018-11-12T05:28:12.661Z,3.20
2018-11-12T05:29:12.658Z,1.90
2018-11-12T05:30:12.636Z,1.80
2018-11-12T05:31:12.636Z,2.50
2018-11-12T05:32:12.654Z,3.30
2018-11-12T05:33:12.611Z,2.10
2018-11-12T05:34:22.689Z,2.30
2018-11-12T05:35:12.586Z,3.40
2018-11-12T05:36:12.573Z,2.90
2018-11-12T05:37:12.563Z,1.90
2018-11-12T05:38:12.651Z,2.60
2018-11-12T05:39:12.538Z,1.90
2018-11-12T05:40:12.533Z,2.70
2018-11-12T05:41:12.522Z,2.10
2018-11-12T05:42:12.509Z,5.30
2018-11-12T05:43:12.499Z,3.80
2018-11-12T05:44:12.518Z,2.00
2018-11-12T05:45:12.479Z,1.60
2018-11-12T05:46:12.473Z,2.20
2018-11-12T05:47:12.465Z,2.80
2018-11-12T05:48:12.450Z,2.20
2018-11-12T05:49:12.433Z,2.30
2018-11-12T05:50:12.471Z,1.60
2018-11-12T05:51:12.418Z,5.00
2018-11-12T05:52:12.401Z,1.80
2018-11-12T05:53:12.387Z,3.80
2018-11-12T05:54:12.384Z,2.00
2018-11-12T05:55:12.368Z,1.60
2018-11-12T05:56:12.398Z,2.20
2018-11-12T05:57:12.347Z,1.90
2018-11-12T05:58:12.333Z,2.60
2018-11-12T05:59:12.389Z,2.60
2018-11-12T06:00:12.309Z,2.30
2018-11-12T06:01:12.303Z,3.60
2018-11-12T06:02:12.363Z,3.00
2018-11-12T06:03:12.295Z,2.60
2018-11-12T06:04:12.275Z,4.00
2018-11-12T06:05:23.041Z,2.30
2018-11-12T06:06:12.247Z,2.10
2018-11-12T06:07:12.239Z,2.50
2018-11-12T06:08:12.274Z,2.00
2018-11-12T06:09:12.213Z,3.70
2018-11-12T06:10:12.201Z,3.20
2018-11-12T06:11:12.196Z,4.30
2018-11-12T06:12:12.187Z,2.90
2018-11-12T06:13:12.174Z,2.70
2018-11-12T06:14:12.207Z,3.10
2018-11-12T06:15:12.146Z,2.60
2018-11-12T06:16:12.137Z,2.90
2018-11-12T06:17:12.125Z,5.20
2018-11-12T06:18:12.121Z,4.40
2018-11-12T06:19:12.113Z,4.00
2018-11-12T06:20:12.116Z,3.40
2018-11-12T06:21:12.083Z,2.60
2018-11-12T06:22:12.082Z,4.30
2018-11-12T06:23:12.063Z,2.10
2018-11-12T06:24:12.052Z,4.70
2018-11-12T06:25:12.044Z,2.90
2018-11-12T06:26:12.097Z,4.10
2018-11-12T06:27:12.022Z,3.50
2018-11-12T06:28:12.007Z,2.70
2018-11-12T06:29:12.000Z,3.90
2018-11-12T06:30:12.244Z,2.70
2018-11-12T06:31:12.024Z,2.60
2018-11-12T06:32:12.001Z,2.50
2018-11-12T06:33:11.953Z,4.80
2018-11-12T06:34:11.940Z,5.00
2018-11-12T06:35:11.931Z,2.30
2018-11-12T06:36:21.919Z,2.80
2018-11-12T06:37:11.910Z,2.90
2018-11-12T06:38:11.940Z,3.50
2018-11-12T06:39:11.891Z,3.10
2018-11-12T06:40:11.899Z,3.10
2018-11-12T06:41:11.872Z,2.50
2018-11-12T06:42:11.854Z,2.50
2018-11-12T06:43:11.939Z,3.80
2018-11-12T06:44:11.872Z,2.10
2018-11-12T06:45:11.825Z,1.40
2018-11-12T06:46:11.807Z,3.10
2018-11-12T06:47:11.801Z,2.80
2018-11-12T06:48:11.791Z,3.70
2018-11-12T06:49:11.777Z,5.60
2018-11-12T06:50:11.807Z,3.40
2018-11-12T06:51:11.768Z,3.00
2018-11-12T06:52:11.751Z,2.60
2018-11-12T06:53:11.747Z,2.20
2018-11-12T06:54:11.730Z,5.50
2018-11-12T06:55:11.716Z,2.90
2018-11-12T06:56:11.731Z,3.20
2018-11-12T06:57:11.697Z,2.40
2018-11-12T06:58:11.682Z,3.30
2018-11-12T06:59:11.675Z,2.90
2018-11-12T07:00:11.659Z,2.80
2018-11-12T07:01:11.657Z,2.80
2018-11-12T07:02:11.672Z,2.90
2018-11-12T07:03:11.628Z,3.30
2018-11-12T07:04:11.618Z,3.90
2018-11-12T07:05:11.604Z,2.70
2018-11-12T07:06:11.645Z,3.40
2018-11-12T07:07:21.888Z,3.70
2018-11-12T07:08:11.596Z,6.90
2018-11-12T07:09:11.563Z,2.40
2018-11-12T07:10:11.552Z,3.20
2018-11-12T07:11:11.545Z,3.80
2018-11-12T07:12:11.526Z,6.50
2018-11-12T07:13:11.614Z,4.90
2018-11-12T07:14:11.543Z,3.80
2018-11-12T07:15:11.501Z,2.90
2018-11-12T07:16:11.500Z,2.90
2018-11-12T07:17:11.476Z,2.90
2018-11-12T07:18:11.465Z,3.20
2018-11-12T07:19:11.491Z,2.70
2018-11-12T07:20:11.449Z,1.90
2018-11-12T07:21:11.439Z,3.10
2018-11-12T07:22:11.425Z,2.60
2018-11-12T07:23:11.421Z,5.30
2018-11-12T07:24:11.410Z,4.10
2018-11-12T07:25:11.495Z,6.10
2018-11-12T07:26:11.376Z,4.10
2018-11-12T07:27:11.379Z,3.10
2018-11-12T07:28:11.357Z,2.30
2018-11-12T07:29:11.352Z,7.40
2018-11-12T07:30:11.336Z,3.80
2018-11-12T07:31:11.436Z,3.80
2018-11-12T07:32:11.314Z,4.30
2018-11-12T07:33:11.307Z,3.60
2018-11-12T07:34:11.307Z,3.30
2018-11-12T07:35:11.285Z,3.20
2018-11-12T07:36:11.272Z,3.50
2018-11-12T07:37:11.371Z,6.50
2018-11-12T07:38:21.341Z,3.30
2018-11-12T07:39:11.236Z,3.70
2018-11-12T07:40:11.229Z,5.50
2018-11-12T07:41:11.216Z,3.60
2018-11-12T07:42:11.328Z,6.40
2018-11-12T07:43:11.237Z,4.50
2018-11-12T07:44:11.181Z,2.50
2018-11-12T07:45:11.173Z,6.70
2018-11-12T07:46:11.171Z,3.80
2018-11-12T07:47:11.155Z,3.90
2018-11-12T07:48:11.138Z,4.60
2018-11-12T07:49:11.164Z,3.80
2018-11-12T07:50:11.116Z,3.80
2018-11-12T07:51:11.172Z,3.20
2018-11-12T07:52:11.094Z,4.60
2018-11-12T07:53:11.082Z,2.80
2018-11-12T07:54:11.089Z,4.40
2018-11-12T07:55:11.120Z,4.80
2018-11-12T07:56:11.075Z,4.20
2018-11-12T07:57:11.043Z,4.60
2018-11-12T07:58:11.033Z,4.30
2018-11-12T07:59:11.026Z,3.20
2018-11-12T08:00:11.030Z,3.40
2018-11-12T08:01:11.035Z,5.40
2018-11-12T08:02:10.997Z,3.10
2018-11-12T08:03:11.129Z,6.50
2018-11-12T08:04:10.963Z,4.70
2018-11-12T08:05:10.956Z,3.00
2018-11-12T08:06:10.939Z,4.90
2018-11-12T08:07:10.980Z,3.40
2018-11-12T08:08:10.923Z,4.70
2018-11-12T08:09:21.234Z,5.60
2018-11-12T08:10:10.941Z,4.90
2018-11-12T08:11:10.894Z,2.60
2018-11-12T08:12:10.878Z,4.10
2018-11-12T08:13:10.900Z,3.60
2018-11-12T08:14:10.854Z,3.60
2018-11-12T08:15:10.894Z,9.90
2018-11-12T08:16:10.839Z,4.50
2018-11-12T08:17:10.820Z,3.90
2018-11-12T08:18:10.815Z,3.70
2018-11-12T08:19:10.840Z,4.10
2018-11-12T08:20:10.793Z,6.10
2018-11-12T08:21:10.786Z,3.80
2018-11-12T08:22:10.775Z,4.60
2018-11-12T08:23:10.776Z,9.10
2018-11-12T08:24:10.864Z,3.10
2018-11-12T08:25:10.775Z,4.00
2018-11-12T08:26:10.729Z,2.50
2018-11-12T08:27:10.721Z,4.60
2018-11-12T08:28:10.712Z,7.00
2018-11-12T08:29:10.701Z,5.90
2018-11-12T08:30:10.810Z,5.70
2018-11-12T08:31:10.718Z,3.30
2018-11-12T08:32:10.661Z,9.20
2018-11-12T08:33:10.703Z,5.30
2018-11-12T08:34:10.654Z,4.20
2018-11-12T08:35:10.634Z,3.90
2018-11-12T08:36:10.629Z,4.20
2018-11-12T08:37:10.641Z,3.90
2018-11-12T08:38:10.603Z,5.90
2018-11-12T08:39:10.614Z,7.70
2018-11-12T08:40:23.125Z,3.50
2018-11-12T08:41:10.623Z,4.50
2018-11-12T08:42:10.551Z,4.90
2018-11-12T08:43:10.577Z,4.20
2018-11-12T08:44:10.531Z,6.20
2018-11-12T08:45:10.519Z,4.60
2018-11-12T08:46:10.578Z,4.40
2018-11-12T08:47:10.499Z,4.70
2018-11-12T08:48:10.493Z,3.40
2018-11-12T08:49:10.771Z,4.40
2018-11-12T08:50:10.485Z,4.00
2018-11-12T08:51:10.455Z,4.30
2018-11-12T08:52:10.466Z,4.90
2018-11-12T08:53:10.437Z,3.80
2018-11-12T08:54:10.430Z,5.40
2018-11-12T08:55:10.599Z,3.90
2018-11-12T08:56:10.406Z,4.10
2018-11-12T08:57:10.394Z,4.50
2018-11-12T08:58:11.175Z,5.70
2018-11-12T08:59:10.486Z,3.20
2018-11-12T09:00:10.355Z,3.20
2018-11-12T09:01:10.392Z,4.30
2018-11-12T09:02:10.407Z,3.80
2018-11-12T09:03:10.330Z,3.50
2018-11-12T09:04:10.395Z,3.70
2018-11-12T09:05:10.914Z,7.90
2018-11-12T09:06:10.290Z,4.00
2018-11-12T09:07:10.435Z,5.00
2018-11-12T09:08:10.293Z,3.30
2018-11-12T09:09:10.284Z,3.00
2018-11-12T09:10:10.261Z,3.40
2018-11-12T09:11:21.614Z,4.80
2018-11-12T09:12:10.229Z,4.80
2018-11-12T09:13:10.254Z,4.10
2018-11-12T09:14:10.210Z,7.70
2018-11-12T09:15:10.197Z,8.20
2018-11-12T09:16:10.185Z,5.00
2018-11-12T09:17:10.189Z,7.60
2018-11-12T09:18:10.170Z,6.70
2018-11-12T09:19:10.404Z,6.70
2018-11-12T09:20:10.145Z,3.80
2018-11-12T09:21:10.136Z,6.90
2018-11-12T09:22:10.125Z,4.10
2018-11-12T09:23:10.109Z,1.60
2018-11-12T09:24:10.147Z,3.30
2018-11-12T09:25:10.132Z,2.40
2018-11-12T09:26:10.074Z,2.10
2018-11-12T09:27:10.067Z,4.50
2018-11-12T09:28:10.242Z,4.70
2018-11-12T09:29:10.053Z,4.00
2018-11-12T09:30:10.033Z,3.40
2018-11-12T09:31:11.292Z,5.10
2018-11-12T09:32:10.013Z,5.10
2018-11-12T09:33:10.002Z,2.40
2018-11-12T09:34:09.996Z,3.40
2018-11-12T09:35:09.980Z,4.70
2018-11-12T09:36:09.970Z,4.50
2018-11-12T09:37:10.020Z,3.20
2018-11-12T09:38:10.030Z,7.40
2018-11-12T09:39:09.937Z,6.50
2018-11-12T09:40:09.970Z,8.60
2018-11-12T09:41:09.944Z,5.10
2018-11-12T09:42:20.618Z,3.40
2018-11-12T09:43:09.939Z,4.20
2018-11-12T09:44:09.878Z,3.10
2018-11-12T09:45:09.869Z,2.80
2018-11-12T09:46:10.058Z,4.50
2018-11-12T09:47:09.869Z,2.80
2018-11-12T09:48:09.877Z,5.00
2018-11-12T09:49:09.872Z,3.40
2018-11-12T09:50:09.820Z,3.40
2018-11-12T09:51:09.803Z,7.20
2018-11-12T09:52:09.802Z,5.00
2018-11-12T09:53:09.785Z,6.00
2018-11-12T09:54:09.986Z,4.20
2018-11-12T09:55:09.764Z,4.90
2018-11-12T09:56:09.749Z,3.40
2018-11-12T09:57:09.741Z,2.30
2018-11-12T09:58:09.749Z,4.30
2018-11-12T09:59:09.763Z,3.50
2018-11-12T10:00:09.805Z,6.10
2018-11-12T10:01:09.846Z,7.20
2018-11-12T10:02:10.466Z,5.90
2018-11-12T10:03:10.888Z,3.50
2018-11-12T10:04:10.733Z,4.90
2018-11-12T10:05:10.731Z,4.00
2018-11-12T10:06:11.506Z,5.90
2018-11-12T10:07:11.660Z,3.20
2018-11-12T10:08:12.274Z,5.80
2018-11-12T10:09:11.428Z,3.30
2018-11-12T10:10:11.718Z,5.60
2018-11-12T10:11:11.319Z,5.20
2018-11-12T10:12:12.114Z,7.00
2018-11-12T10:13:22.210Z,3.60
2018-11-12T10:14:11.507Z,5.80
2018-11-12T10:15:11.986Z,4.60
2018-11-12T10:16:12.762Z,6.30
2018-11-12T10:17:13.166Z,5.20
2018-11-12T10:19:09.504Z,6.10
2018-11-12T10:20:09.544Z,3.70
2018-11-12T10:21:09.485Z,3.70
2018-11-12T10:22:09.475Z,4.20
2018-11-12T10:23:09.462Z,5.20
2018-11-12T10:24:09.557Z,6.80
2018-11-12T10:25:09.440Z,3.80
2018-11-12T10:26:09.430Z,6.50
2018-11-12T10:27:09.473Z,5.60
2018-11-12T10:28:09.416Z,8.90
2018-11-12T10:29:09.396Z,4.60
2018-11-12T10:30:09.420Z,6.80
2018-11-12T10:31:09.371Z,4.70
2018-11-12T10:32:09.376Z,5.50
2018-11-12T10:33:09.353Z,7.30
2018-11-12T10:34:09.373Z,11.30
2018-11-12T10:35:09.339Z,9.80
2018-11-12T10:36:09.353Z,6.50
2018-11-12T10:37:09.313Z,5.90
2018-11-12T10:38:09.304Z,6.00
2018-11-12T10:39:09.293Z,7.80
2018-11-12T10:40:09.294Z,5.30
2018-11-12T10:41:09.301Z,12.30
2018-11-12T10:42:09.271Z,8.00
2018-11-12T10:43:09.263Z,6.40
2018-11-12T10:44:19.450Z,8.10
2018-11-12T10:45:09.232Z,6.40
2018-11-12T10:46:09.249Z,8.00
2018-11-12T10:47:09.201Z,8.00
2018-11-12T10:48:09.476Z,9.80
2018-11-12T10:49:09.176Z,12.40
2018-11-12T10:50:09.170Z,5.80
2018-11-12T10:51:09.202Z,14.30
2018-11-12T10:52:09.146Z,5.20
2018-11-12T10:53:09.146Z,5.90
2018-11-12T10:54:09.671Z,5.40
2018-11-12T10:55:09.330Z,17.10
2018-11-12T10:56:09.215Z,11.40
2018-11-12T10:57:09.093Z,9.50
2018-11-12T10:58:09.105Z,5.60
2018-11-12T10:59:09.070Z,6.60
2018-11-12T11:00:09.124Z,6.50
2018-11-12T11:01:09.055Z,7.00
2018-11-12T11:02:09.048Z,7.20
2018-11-12T11:03:09.031Z,6.80
2018-11-12T11:04:09.014Z,7.10
2018-11-12T11:05:09.003Z,7.30
2018-11-12T11:06:09.034Z,4.80
2018-11-12T11:07:08.992Z,5.20
2018-11-12T11:08:09.079Z,10.00
2018-11-12T11:09:08.962Z,7.20
2018-11-12T11:10:08.975Z,8.20
2018-11-12T11:11:08.950Z,8.30
2018-11-12T11:12:08.968Z,7.00
2018-11-12T11:13:08.921Z,10.20
2018-11-12T11:14:08.906Z,7.70
2018-11-12T11:15:21.111Z,8.50
2018-11-12T11:16:08.887Z,8.00
2018-11-12T11:17:08.878Z,6.90
2018-11-12T11:18:08.903Z,11.20
2018-11-12T11:19:08.855Z,5.90
2018-11-12T11:20:08.847Z,8.40
2018-11-12T11:21:08.856Z,12.20
2018-11-12T11:22:08.825Z,7.60
2018-11-12T11:23:08.813Z,8.60
2018-11-12T11:24:08.980Z,8.40
2018-11-12T11:25:08.789Z,7.70
2018-11-12T11:26:08.789Z,6.70
2018-11-12T11:27:08.775Z,5.40
2018-11-12T11:28:08.765Z,7.70
2018-11-12T11:29:08.749Z,9.20
2018-11-12T11:30:08.778Z,9.10
2018-11-12T11:31:08.730Z,9.70
2018-11-12T11:32:08.714Z,12.20
2018-11-12T11:33:08.707Z,7.30
2018-11-12T11:34:08.700Z,14.10
2018-11-12T11:35:08.687Z,8.70
2018-11-12T11:36:08.708Z,8.90
2018-11-12T11:37:08.665Z,9.30
2018-11-12T11:38:08.657Z,11.90
2018-11-12T11:39:08.642Z,5.40
2018-11-12T11:40:08.684Z,7.90
2018-11-12T11:41:08.625Z,6.80
2018-11-12T11:42:08.703Z,6.30
2018-11-12T11:43:08.596Z,6.10
2018-11-12T11:44:08.589Z,7.30
2018-11-12T11:45:08.576Z,5.10
2018-11-12T11:46:20.043Z,4.90
2018-11-12T11:47:08.600Z,7.90
2018-11-12T11:48:08.796Z,3.70
2018-11-12T11:49:08.530Z,5.70
2018-11-12T11:50:08.576Z,7.90
2018-11-12T11:51:08.507Z,11.70
2018-11-12T11:52:08.497Z,8.10
2018-11-12T11:53:08.485Z,6.20
2018-11-12T11:54:08.499Z,7.20
2018-11-12T11:55:08.465Z,8.10
2018-11-12T11:56:08.456Z,4.60
2018-11-12T11:57:08.466Z,6.90
2018-11-12T11:58:08.438Z,7.50
2018-11-12T11:59:08.426Z,7.00
2018-11-12T12:00:08.457Z,5.40
2018-11-12T12:01:08.405Z,8.00
2018-11-12T12:02:08.449Z,5.80
2018-11-12T12:03:08.508Z,6.20
2018-11-12T12:04:08.366Z,4.90
2018-11-12T12:05:08.360Z,8.40
2018-11-12T12:06:08.553Z,10.10
2018-11-12T12:07:08.337Z,4.70
2018-11-12T12:08:08.325Z,6.00
2018-11-12T12:09:08.335Z,5.60
2018-11-12T12:10:08.307Z,6.90
2018-11-12T12:11:08.297Z,2.40
2018-11-12T12:12:08.327Z,9.40
2018-11-12T12:13:08.286Z,3.90
2018-11-12T12:14:08.259Z,6.20
2018-11-12T12:15:08.252Z,7.00
2018-11-12T12:16:08.234Z,7.70
2018-11-12T12:17:19.175Z,5.00
2018-11-12T12:18:08.219Z,3.80
2018-11-12T12:19:08.213Z,7.40
2018-11-12T12:20:08.200Z,7.60
2018-11-12T12:21:08.221Z,8.00
2018-11-12T12:22:08.179Z,6.10
2018-11-12T12:23:08.250Z,14.20
2018-11-12T12:24:08.153Z,5.30
2018-11-12T12:25:08.292Z,7.80
2018-11-12T12:26:08.136Z,7.40
2018-11-12T12:27:08.117Z,6.70
2018-11-12T12:28:08.116Z,12.00
2018-11-12T12:29:08.134Z,5.50
2018-11-12T12:30:08.084Z,4.70
2018-11-12T12:31:08.075Z,8.20
2018-11-12T12:32:08.068Z,6.50
2018-11-12T12:33:08.051Z,5.20
2018-11-12T12:34:08.053Z,6.90
2018-11-12T12:35:08.091Z,9.00
2018-11-12T12:36:08.144Z,6.70
2018-11-12T12:37:08.015Z,6.20
2018-11-12T12:38:07.997Z,10.80
2018-11-12T12:39:07.989Z,6.70
2018-11-12T12:40:07.982Z,6.40
2018-11-12T12:41:08.033Z,7.60
2018-11-12T12:42:07.967Z,6.40
2018-11-12T12:43:07.948Z,5.80
2018-11-12T12:44:07.940Z,13.10
2018-11-12T12:45:07.939Z,10.40
2018-11-12T12:46:07.920Z,8.60
2018-11-12T12:47:07.943Z,8.80
2018-11-12T12:48:18.361Z,8.30
2018-11-12T12:49:07.880Z,8.50
2018-11-12T12:50:07.867Z,9.50
2018-11-12T12:51:07.865Z,7.70
2018-11-12T12:52:07.851Z,5.70
2018-11-12T12:53:07.877Z,11.20
2018-11-12T12:54:07.838Z,5.90
2018-11-12T12:55:07.820Z,7.40
2018-11-12T12:56:07.878Z,10.20
2018-11-12T12:57:07.799Z,8.40
2018-11-12T12:58:07.818Z,7.30
2018-11-12T12:59:07.808Z,6.70
2018-11-12T13:00:07.767Z,11.20
2018-11-12T13:01:07.751Z,9.90
2018-11-12T13:02:07.789Z,9.50
2018-11-12T13:03:07.732Z,8.30
2018-11-12T13:04:07.724Z,9.40
2018-11-12T13:05:08.072Z,7.00
2018-11-12T13:06:07.705Z,7.30
2018-11-12T13:07:07.687Z,6.00
2018-11-12T13:08:07.677Z,9.10
2018-11-12T13:09:07.669Z,8.50
2018-11-12T13:10:07.665Z,11.00
2018-11-12T13:11:07.691Z,11.50
2018-11-12T13:12:07.629Z,11.20
2018-11-12T13:13:07.622Z,8.40
2018-11-12T13:14:07.681Z,12.50
2018-11-12T13:15:07.608Z,8.50
2018-11-12T13:16:07.600Z,12.30
2018-11-12T13:17:07.626Z,11.40
2018-11-12T13:18:07.568Z,6.20